Hittle, Illinois
Current Conditions -  °F | °C
As of 5:15 AM on Sunday 23 Nov 2014 (Local Time) from KAAA Reporting Station
Overcast Overcast  
Wind Chill: 51°   Ceiling: 9000
Heat Index: 51°   Visibility: 10mi
Dew Point: 44°   Wind: 9mph
Humidity: 76%   Direction: 170°S
Pressure: 29.75"   Gusts: NA
Location:  40.3088°N, 89.3237°W
Report Text: KAAA 231115Z AUTO 17008KT 10SM SCT085 OVC090 11/07 A2975 RMK AO2 T01060065
Loading
Personal Weather Stations






























Interactive Weather Map New forecast layout! Learn more

10-Day Weather Forecast

Advertisements
Track Severe Weather on mobile